createdAt,value
2022-08-19T00:01:38.054Z,10.63
2022-08-19T00:04:08.652Z,11.00
2022-08-19T00:06:37.513Z,9.90
2022-08-19T00:09:06.989Z,10.60
2022-08-19T00:11:36.574Z,9.98
2022-08-19T00:14:04.009Z,11.05
2022-08-19T00:16:30.953Z,10.88
2022-08-19T00:18:58.033Z,10.13
2022-08-19T00:21:27.659Z,11.10
2022-08-19T00:23:56.342Z,10.43
2022-08-19T00:26:23.255Z,10.88
2022-08-19T00:28:50.111Z,10.85
2022-08-19T00:31:17.302Z,11.07
2022-08-19T00:33:44.585Z,10.43
2022-08-19T00:36:12.287Z,10.52
2022-08-19T00:38:43.941Z,11.15
2022-08-19T00:41:15.741Z,10.55
2022-08-19T00:43:42.709Z,11.25
2022-08-19T00:46:09.751Z,11.63
2022-08-19T00:48:37.561Z,11.27
2022-08-19T00:51:06.653Z,11.40
2022-08-19T00:53:35.233Z,10.77
2022-08-19T00:56:03.477Z,11.35
2022-08-19T00:58:33.492Z,11.07
2022-08-19T01:01:01.839Z,11.02
2022-08-19T01:03:29.081Z,10.52
2022-08-19T01:06:17.721Z,10.75
2022-08-19T01:08:47.538Z,11.25
2022-08-19T01:11:17.629Z,10.65
2022-08-19T01:13:49.717Z,11.52
2022-08-19T01:16:19.737Z,11.65
2022-08-19T01:18:46.638Z,11.75
2022-08-19T01:21:25.480Z,13.00
2022-08-19T01:23:52.474Z,12.73
2022-08-19T01:26:22.856Z,12.02
2022-08-19T01:28:53.615Z,12.60
2022-08-19T01:31:26.787Z,11.90
2022-08-19T01:33:56.807Z,13.20
2022-08-19T01:36:28.116Z,11.75
2022-08-19T01:38:55.947Z,13.18
2022-08-19T01:41:24.552Z,12.70
2022-08-19T01:44:16.943Z,12.30
2022-08-19T01:46:43.477Z,11.88
2022-08-19T01:49:11.200Z,10.85
2022-08-19T01:51:40.311Z,11.15
2022-08-19T01:54:09.728Z,10.63
2022-08-19T01:56:37.111Z,11.27
2022-08-19T01:59:09.985Z,10.68
2022-08-19T02:04:04.049Z,11.20
2022-08-19T02:06:31.114Z,11.90
2022-08-19T02:08:58.473Z,11.02
2022-08-19T02:11:32.747Z,11.35
2022-08-19T02:14:00.944Z,12.55
2022-08-19T02:16:27.841Z,13.40
2022-08-19T02:18:55.778Z,13.18
2022-08-19T02:21:24.574Z,14.98
2022-08-19T02:23:51.960Z,15.07
2022-08-19T02:26:20.314Z,13.77
2022-08-19T02:28:47.410Z,13.32
2022-08-19T02:31:18.841Z,14.63
2022-08-19T02:33:46.862Z,16.25
2022-08-19T02:36:16.156Z,14.63
2022-08-19T02:38:47.187Z,15.02
2022-08-19T02:41:26.672Z,14.23
2022-08-19T02:44:26.378Z,13.80
2022-08-19T02:46:48.287Z,14.55
2022-08-19T02:49:17.530Z,13.77
2022-08-19T02:51:46.696Z,15.05
2022-08-19T02:54:14.872Z,13.77
2022-08-19T02:56:43.426Z,13.80
2022-08-19T02:59:11.250Z,12.68
2022-08-19T03:01:41.650Z,13.07
2022-08-19T03:04:10.158Z,13.20
2022-08-19T03:06:39.099Z,14.40
2022-08-19T03:09:06.065Z,13.30
2022-08-19T03:11:34.231Z,13.90
2022-08-19T03:14:02.230Z,14.60
2022-08-19T03:16:33.456Z,14.77
2022-08-19T03:19:02.684Z,13.65
2022-08-19T03:21:33.624Z,15.63
2022-08-19T03:24:04.337Z,16.25
2022-08-19T03:26:31.669Z,16.48
2022-08-19T03:28:59.170Z,17.20
2022-08-19T03:31:44.115Z,17.88
2022-08-19T03:34:21.428Z,18.58
2022-08-19T03:36:49.128Z,19.20
2022-08-19T03:39:17.475Z,17.88
2022-08-19T03:41:46.660Z,16.83
2022-08-19T03:44:21.786Z,16.85
2022-08-19T03:46:52.292Z,18.73
2022-08-19T03:49:20.465Z,17.58
2022-08-19T03:51:49.605Z,18.73
2022-08-19T03:54:20.413Z,18.02
2022-08-19T03:56:49.378Z,18.33
2022-08-19T03:59:26.646Z,19.27
2022-08-19T04:01:58.674Z,18.33
2022-08-19T04:04:29.035Z,17.73
2022-08-19T04:06:57.267Z,18.20
2022-08-19T04:09:24.268Z,19.52
2022-08-19T04:11:55.056Z,18.65
2022-08-19T04:14:25.635Z,22.38
2022-08-19T04:16:53.015Z,23.20
2022-08-19T04:19:20.683Z,23.42
2022-08-19T04:21:54.120Z,23.52
2022-08-19T04:24:22.362Z,24.02
2022-08-19T04:26:50.228Z,23.52
2022-08-19T04:29:22.811Z,22.95
2022-08-19T04:31:50.428Z,22.67
2022-08-19T04:34:23.466Z,22.27
2022-08-19T04:36:53.828Z,23.50
2022-08-19T04:39:49.537Z,21.00
2022-08-19T04:42:37.673Z,23.20
2022-08-19T04:45:09.239Z,21.08
2022-08-19T04:47:47.402Z,26.42
2022-08-19T04:50:25.767Z,22.60
2022-08-19T04:52:53.491Z,22.45
2022-08-19T04:55:20.634Z,27.50
2022-08-19T04:57:47.628Z,22.70
2022-08-19T05:00:14.779Z,20.02
2022-08-19T05:02:41.942Z,23.10
2022-08-19T05:05:09.420Z,22.30
2022-08-19T05:07:36.989Z,29.35
2022-08-19T05:10:06.468Z,28.40
2022-08-19T05:12:33.624Z,28.45
2022-08-19T05:15:01.356Z,29.55
2022-08-19T05:17:31.223Z,26.90
2022-08-19T05:20:17.599Z,28.30
2022-08-19T05:22:46.097Z,31.35
2022-08-19T05:25:19.622Z,29.10
2022-08-19T05:27:47.107Z,30.42
2022-08-19T05:30:14.442Z,29.88
2022-08-19T05:32:41.638Z,32.15
2022-08-19T05:35:09.508Z,37.72
2022-08-19T05:37:36.384Z,39.13
2022-08-19T05:40:04.771Z,39.03
2022-08-19T05:42:31.816Z,39.03
2022-08-19T05:44:58.999Z,39.03
2022-08-19T05:47:25.868Z,40.33
2022-08-19T05:49:52.718Z,39.13
2022-08-19T05:52:25.957Z,41.97
2022-08-19T05:54:56.585Z,39.15
2022-08-19T05:57:24.942Z,40.92
2022-08-19T05:59:58.161Z,40.90
2022-08-19T06:02:27.102Z,42.50
2022-08-19T06:04:54.137Z,41.83
2022-08-19T06:07:21.020Z,42.42
2022-08-19T06:09:59.613Z,41.78
2022-08-19T06:12:35.603Z,42.05
2022-08-19T06:15:09.302Z,42.72
2022-08-19T06:17:36.743Z,42.90
2022-08-19T06:20:08.641Z,45.28
2022-08-19T06:22:52.776Z,48.92
2022-08-19T06:25:19.841Z,46.95
2022-08-19T06:28:14.025Z,46.15
2022-08-19T06:30:34.141Z,44.55
2022-08-19T06:33:01.013Z,45.25
2022-08-19T06:35:28.067Z,44.15
2022-08-19T06:37:55.464Z,45.55
2022-08-19T06:40:22.933Z,46.05
2022-08-19T06:42:54.677Z,45.75
2022-08-19T06:45:24.970Z,46.40
2022-08-19T06:48:01.813Z,42.47
2022-08-19T06:50:28.721Z,46.45
2022-08-19T06:52:55.760Z,45.03
2022-08-19T06:55:22.852Z,45.42
2022-08-19T06:57:54.531Z,44.83
2022-08-19T07:00:21.918Z,44.90
2022-08-19T07:02:55.842Z,45.60
2022-08-19T07:05:26.361Z,45.72
2022-08-19T07:07:53.288Z,44.65
2022-08-19T07:10:25.798Z,44.42
2022-08-19T07:12:52.931Z,43.10
2022-08-19T07:15:22.357Z,42.83
2022-08-19T07:17:52.658Z,42.28
2022-08-19T07:20:20.011Z,40.03
2022-08-19T07:22:46.921Z,38.17
2022-08-19T07:25:14.323Z,40.08
2022-08-19T07:27:41.208Z,37.63
2022-08-19T07:30:11.640Z,36.08
2022-08-19T07:32:39.465Z,36.47
2022-08-19T07:35:07.373Z,34.88
2022-08-19T07:37:36.545Z,31.67
2022-08-19T07:40:05.997Z,29.33
2022-08-19T07:42:33.308Z,28.60
2022-08-19T07:45:00.265Z,30.52
2022-08-19T07:47:47.655Z,28.83
2022-08-19T07:50:15.824Z,30.42
2022-08-19T07:52:48.687Z,31.55
2022-08-19T07:55:41.817Z,27.88
2022-08-19T07:58:11.608Z,32.40
2022-08-19T08:00:39.277Z,30.88
2022-08-19T08:03:06.401Z,32.67
2022-08-19T08:05:51.690Z,30.00
2022-08-19T08:08:36.734Z,32.33
2022-08-19T08:11:07.644Z,27.73
2022-08-19T08:13:36.314Z,30.70
2022-08-19T08:16:06.327Z,29.88
2022-08-19T08:18:42.492Z,28.88
2022-08-19T08:21:09.977Z,24.15
2022-08-19T08:23:37.082Z,24.50
2022-08-19T08:26:06.742Z,23.27
2022-08-19T08:28:33.709Z,21.23
2022-08-19T08:31:00.772Z,21.05
2022-08-19T08:33:34.871Z,20.55
2022-08-19T08:36:05.466Z,20.63
2022-08-19T08:38:39.147Z,22.85
2022-08-19T08:41:22.669Z,21.30
2022-08-19T08:43:53.253Z,22.02
2022-08-19T08:46:42.874Z,23.30
2022-08-19T08:49:52.455Z,21.88
2022-08-19T08:52:31.988Z,24.40
2022-08-19T08:55:10.287Z,26.40
2022-08-19T08:57:41.053Z,28.90
2022-08-19T09:00:16.227Z,25.33
2022-08-19T09:02:43.961Z,25.92
2022-08-19T09:05:25.836Z,25.30
2022-08-19T09:07:59.199Z,28.37
2022-08-19T09:10:44.692Z,27.02
2022-08-19T09:13:30.279Z,29.38
2022-08-19T09:16:28.038Z,29.97
2022-08-19T09:19:07.837Z,28.00
2022-08-19T09:21:35.770Z,32.97
2022-08-19T09:24:03.849Z,30.80
2022-08-19T09:26:47.472Z,29.17
2022-08-19T09:29:19.756Z,32.00
2022-08-19T09:31:51.216Z,33.92
2022-08-19T09:34:22.199Z,32.55
2022-08-19T09:36:54.797Z,29.05
2022-08-19T09:39:22.506Z,28.45
2022-08-19T09:41:50.958Z,27.52
2022-08-19T09:44:18.945Z,28.55
2022-08-19T09:46:48.152Z,24.35
2022-08-19T09:49:18.302Z,24.00
2022-08-19T09:51:50.442Z,25.27
2022-08-19T09:54:23.529Z,22.60
2022-08-19T09:56:53.005Z,24.02
2022-08-19T09:59:19.909Z,29.73
2022-08-19T10:01:47.032Z,30.23
2022-08-19T10:04:20.267Z,29.20
2022-08-19T10:06:51.838Z,28.88
2022-08-19T10:09:34.084Z,24.88
2022-08-19T10:12:02.788Z,28.17
2022-08-19T10:14:30.237Z,24.35
2022-08-19T10:16:57.625Z,22.75
2022-08-19T10:19:26.736Z,23.60
2022-08-19T10:22:00.124Z,27.60
2022-08-19T10:24:29.029Z,28.17
2022-08-19T10:26:59.633Z,26.17
2022-08-19T10:29:33.034Z,22.02
2022-08-19T10:32:09.721Z,27.08
2022-08-19T10:34:48.805Z,20.90
2022-08-19T10:37:28.878Z,23.40
2022-08-19T10:39:58.094Z,23.55
2022-08-19T10:42:25.154Z,18.33
2022-08-19T10:44:52.245Z,19.50
2022-08-19T10:47:25.023Z,17.88
2022-08-19T10:50:13.497Z,20.48
2022-08-19T10:52:49.521Z,16.42
2022-08-19T10:55:38.699Z,17.58
2022-08-19T10:58:11.137Z,16.02
2022-08-19T11:00:38.320Z,14.88
2022-08-19T11:03:05.456Z,14.45
2022-08-19T11:05:39.635Z,14.93
2022-08-19T11:08:22.564Z,14.48
2022-08-19T11:10:57.844Z,16.05
2022-08-19T11:13:25.634Z,14.57
2022-08-19T11:16:07.698Z,13.15
2022-08-19T11:18:40.083Z,14.35
2022-08-19T11:21:21.133Z,14.07
2022-08-19T11:23:51.335Z,12.13
2022-08-19T11:26:19.687Z,11.48
2022-08-19T11:28:47.778Z,10.73
2022-08-19T11:31:17.696Z,12.02
2022-08-19T11:33:47.627Z,10.20
2022-08-19T11:36:15.929Z,9.70
2022-08-19T11:38:43.528Z,12.13
2022-08-19T11:41:10.474Z,10.48
2022-08-19T11:43:38.346Z,10.25
2022-08-19T11:46:10.997Z,10.52
2022-08-19T11:51:07.948Z,9.50
2022-08-19T11:53:35.584Z,9.05
2022-08-19T11:56:03.521Z,11.32
2022-08-19T11:58:31.047Z,10.95
2022-08-19T12:00:58.240Z,12.80
2022-08-19T12:03:26.434Z,10.98
2022-08-19T12:05:53.488Z,12.05
2022-08-19T12:08:20.778Z,11.70
2022-08-19T12:10:47.665Z,12.55
2022-08-19T12:13:19.727Z,11.52
2022-08-19T12:15:48.516Z,13.00
2022-08-19T12:18:15.474Z,12.63
2022-08-19T12:20:44.113Z,13.80
2022-08-19T12:23:11.324Z,14.13
2022-08-19T12:25:44.715Z,18.25
2022-08-19T12:28:11.594Z,13.20
2022-08-19T12:30:39.502Z,13.98
2022-08-19T12:33:06.359Z,13.25
2022-08-19T12:35:33.342Z,15.60
2022-08-19T12:38:02.783Z,13.88
2022-08-19T12:40:29.785Z,13.85
2022-08-19T12:42:56.670Z,15.60
2022-08-19T12:45:23.801Z,15.10
2022-08-19T12:47:50.744Z,16.30
2022-08-19T12:50:22.479Z,14.38
2022-08-19T12:52:49.579Z,13.32
2022-08-19T12:55:16.725Z,14.90
2022-08-19T12:57:43.656Z,14.95
2022-08-19T13:00:14.585Z,15.85
2022-08-19T13:02:47.613Z,18.58
2022-08-19T13:05:17.586Z,16.08
2022-08-19T13:07:47.587Z,15.15
2022-08-19T13:10:17.306Z,16.13
2022-08-19T13:12:46.071Z,16.13
2022-08-19T13:15:15.134Z,13.02
2022-08-19T13:17:43.166Z,11.55
2022-08-19T13:20:11.414Z,11.65
2022-08-19T13:22:39.176Z,10.88
2022-08-19T13:25:07.991Z,11.23
2022-08-19T13:27:35.051Z,12.50
2022-08-19T13:30:21.979Z,11.93
2022-08-19T13:33:07.356Z,11.27
2022-08-19T13:35:34.260Z,10.77
2022-08-19T13:38:02.520Z,10.48
2022-08-19T13:40:31.333Z,13.73
2022-08-19T13:42:58.475Z,11.88
2022-08-19T13:45:28.184Z,13.18
2022-08-19T13:47:59.710Z,12.07
2022-08-19T13:50:32.257Z,11.67
2022-08-19T13:52:59.291Z,11.55
2022-08-19T13:55:26.600Z,12.13
2022-08-19T13:57:56.068Z,12.50
2022-08-19T14:00:25.800Z,11.65
2022-08-19T14:02:55.148Z,10.75
2022-08-19T14:05:22.300Z,8.95
2022-08-19T14:07:49.302Z,8.85
2022-08-19T14:10:17.602Z,9.65
2022-08-19T14:12:45.572Z,9.73
2022-08-19T14:15:13.535Z,10.13
2022-08-19T14:17:42.014Z,9.75
2022-08-19T14:20:17.636Z,8.32
2022-08-19T14:22:47.346Z,10.77
2022-08-19T14:25:18.409Z,11.88
2022-08-19T14:27:46.009Z,11.18
2022-08-19T14:30:15.671Z,10.77
2022-08-19T14:32:44.397Z,9.68
2022-08-19T14:35:13.798Z,10.35
2022-08-19T14:37:45.817Z,9.90
2022-08-19T14:40:14.918Z,9.20
2022-08-19T14:42:42.378Z,8.93
2022-08-19T14:45:11.088Z,9.90
2022-08-19T14:47:39.787Z,9.45
2022-08-19T14:50:10.620Z,9.77
2022-08-19T14:52:45.243Z,9.80
2022-08-19T14:55:12.329Z,9.40
2022-08-19T14:57:41.159Z,10.52
2022-08-19T15:00:12.963Z,9.13
2022-08-19T15:02:40.483Z,9.63
2022-08-19T15:05:07.857Z,10.77
2022-08-19T15:07:35.451Z,10.63
2022-08-19T15:10:02.376Z,9.40
2022-08-19T15:12:29.276Z,8.60
2022-08-19T15:14:57.061Z,7.43
2022-08-19T15:17:35.345Z,7.65
2022-08-19T15:20:14.927Z,6.38
2022-08-19T15:22:43.198Z,6.57
2022-08-19T15:25:13.757Z,5.78
2022-08-19T15:27:41.841Z,5.50
2022-08-19T15:30:10.100Z,4.15
2022-08-19T15:32:37.972Z,4.90
2022-08-19T15:35:06.763Z,4.10
2022-08-19T15:37:36.946Z,4.15
2022-08-19T15:40:06.660Z,3.40
2022-08-19T15:42:36.069Z,3.60
2022-08-19T15:45:04.169Z,2.95
2022-08-19T15:47:34.776Z,2.97
2022-08-19T15:50:25.705Z,3.30
2022-08-19T15:53:00.019Z,3.80
2022-08-19T15:55:33.582Z,3.88
2022-08-19T15:58:30.000Z,4.07
2022-08-19T16:01:23.717Z,4.22
2022-08-19T16:04:14.584Z,6.30
2022-08-19T16:07:03.786Z,3.10
2022-08-19T16:09:34.761Z,3.08
2022-08-19T16:12:05.282Z,3.78
2022-08-19T16:14:35.407Z,4.47
2022-08-19T16:17:02.829Z,3.65
2022-08-19T16:19:31.064Z,2.92
2022-08-19T16:21:58.026Z,2.10
2022-08-19T16:24:27.390Z,2.42
2022-08-19T16:26:55.247Z,2.97
2022-08-19T16:29:34.877Z,3.25
2022-08-19T16:32:10.521Z,3.40
2022-08-19T16:34:40.298Z,3.33
2022-08-19T16:37:07.303Z,3.35
2022-08-19T16:39:34.254Z,3.42
2022-08-19T16:42:01.287Z,3.40
2022-08-19T16:44:29.641Z,2.95
2022-08-19T16:46:58.667Z,3.20
2022-08-19T16:49:53.527Z,3.28
2022-08-19T16:52:16.249Z,2.95
2022-08-19T16:54:44.023Z,3.17
2022-08-19T16:57:12.960Z,2.78
2022-08-19T16:59:48.149Z,3.08
2022-08-19T17:02:15.614Z,3.00
2022-08-19T17:04:42.556Z,3.15
2022-08-19T17:07:10.464Z,2.83
2022-08-19T17:09:38.050Z,2.58
2022-08-19T17:12:05.859Z,2.15
2022-08-19T17:14:32.745Z,2.60
2022-08-19T17:16:59.672Z,2.33
2022-08-19T17:19:28.445Z,2.15
2022-08-19T17:21:56.200Z,2.38
2022-08-19T17:24:23.132Z,2.08
2022-08-19T17:26:49.982Z,2.17
2022-08-19T17:29:16.828Z,2.40
2022-08-19T17:31:43.708Z,2.55
2022-08-19T17:34:10.568Z,1.92
2022-08-19T17:36:38.246Z,2.40
2022-08-19T17:39:05.369Z,2.70
2022-08-19T17:41:34.269Z,2.20
2022-08-19T17:44:02.072Z,2.70
2022-08-19T17:46:30.483Z,2.40
2022-08-19T17:48:58.434Z,2.67
2022-08-19T17:51:34.235Z,2.25
2022-08-19T17:54:02.367Z,2.33
2022-08-19T17:56:29.289Z,2.45
2022-08-19T17:59:00.180Z,2.30
2022-08-19T18:01:41.631Z,2.47
2022-08-19T18:04:17.289Z,2.20
2022-08-19T18:06:46.904Z,2.55
2022-08-19T18:09:24.882Z,2.25
2022-08-19T18:11:57.188Z,2.40
2022-08-19T18:14:33.502Z,2.95
2022-08-19T18:17:05.945Z,2.20
2022-08-19T18:19:41.055Z,2.90
2022-08-19T18:22:30.026Z,2.40
2022-08-19T18:24:58.064Z,2.78
2022-08-19T18:27:27.194Z,2.95
2022-08-19T18:29:58.188Z,2.70
2022-08-19T18:32:26.769Z,3.00
2022-08-19T18:34:54.919Z,2.92
2022-08-19T18:37:22.697Z,3.05
2022-08-19T18:40:08.131Z,2.95
2022-08-19T18:42:54.398Z,3.25
2022-08-19T18:45:39.844Z,3.05
2022-08-19T18:48:29.368Z,3.25
2022-08-19T18:51:00.985Z,2.92
2022-08-19T18:53:30.662Z,2.95
2022-08-19T18:55:58.135Z,3.20
2022-08-19T18:58:32.463Z,2.97
2022-08-19T19:01:01.862Z,2.85
2022-08-19T19:03:29.114Z,2.80
2022-08-19T19:05:56.042Z,3.30
2022-08-19T19:08:26.907Z,2.88
2022-08-19T19:10:55.124Z,3.22
2022-08-19T19:13:22.034Z,2.83
2022-08-19T19:15:48.950Z,2.95
2022-08-19T19:18:15.948Z,2.72
2022-08-19T19:20:43.040Z,2.75
2022-08-19T19:23:10.024Z,2.72
2022-08-19T19:25:49.880Z,2.55
2022-08-19T19:28:25.568Z,2.70
2022-08-19T19:30:54.765Z,2.30
2022-08-19T19:33:21.956Z,2.35
2022-08-19T19:35:49.058Z,2.72
2022-08-19T19:38:16.133Z,3.38
2022-08-19T19:40:43.244Z,2.55
2022-08-19T19:43:10.315Z,2.50
2022-08-19T19:45:38.260Z,2.90
2022-08-19T19:50:32.338Z,2.35
2022-08-19T19:52:59.284Z,2.30
2022-08-19T19:55:27.110Z,2.20
2022-08-19T19:57:55.244Z,2.40
2022-08-19T20:00:22.392Z,2.30
2022-08-19T20:02:50.994Z,2.00
2022-08-19T20:05:20.950Z,2.53
2022-08-19T20:08:06.589Z,2.65
2022-08-19T20:10:34.314Z,2.70
2022-08-19T20:13:02.598Z,3.08
2022-08-19T20:15:31.617Z,2.30
2022-08-19T20:18:00.365Z,2.63
2022-08-19T20:20:27.478Z,2.75
2022-08-19T20:22:54.783Z,3.60
2022-08-19T20:25:22.450Z,2.45
2022-08-19T20:27:50.148Z,2.47
2022-08-19T20:30:20.066Z,3.00
2022-08-19T20:32:48.271Z,2.60
2022-08-19T20:35:17.977Z,2.35
2022-08-19T20:37:45.309Z,2.28
2022-08-19T20:40:13.550Z,2.30
2022-08-19T20:42:42.314Z,2.35
2022-08-19T20:45:29.395Z,2.25
2022-08-19T20:48:02.555Z,2.50
2022-08-19T20:50:30.156Z,2.10
2022-08-19T20:52:57.661Z,2.00
2022-08-19T20:55:24.999Z,1.92
2022-08-19T20:57:52.015Z,21.17
2022-08-19T21:00:19.411Z,1.58
2022-08-19T21:02:47.072Z,1.30
2022-08-19T21:05:15.107Z,1.17
2022-08-19T21:07:42.756Z,1.40
2022-08-19T21:10:11.951Z,1.50
2022-08-19T21:12:40.082Z,1.30
2022-08-19T21:15:07.898Z,1.20
2022-08-19T21:17:37.341Z,1.20
2022-08-19T21:20:07.848Z,1.40
2022-08-19T21:22:38.749Z,1.40
2022-08-19T21:25:07.010Z,1.35
2022-08-19T21:27:34.463Z,1.10
2022-08-19T21:30:01.647Z,1.40
2022-08-19T21:32:28.769Z,1.50
2022-08-19T21:34:55.916Z,0.88
2022-08-19T21:37:24.974Z,1.00
2022-08-19T21:39:56.616Z,1.33
2022-08-19T21:42:24.336Z,1.00
2022-08-19T21:44:51.629Z,1.42
2022-08-19T21:47:18.970Z,1.15
2022-08-19T21:49:46.300Z,1.05
2022-08-19T21:52:13.907Z,1.27
2022-08-19T21:54:41.090Z,1.30
2022-08-19T21:57:10.625Z,1.85
2022-08-19T21:59:43.689Z,1.38
2022-08-19T22:02:20.334Z,1.42
2022-08-19T22:04:48.813Z,1.42
2022-08-19T22:07:15.871Z,1.38
2022-08-19T22:09:47.399Z,1.10
2022-08-19T22:12:27.553Z,1.70
2022-08-19T22:14:55.653Z,1.20
2022-08-19T22:17:23.079Z,1.17
2022-08-19T22:19:51.013Z,1.20
2022-08-19T22:22:27.246Z,1.40
2022-08-19T22:25:00.046Z,1.20
2022-08-19T22:29:54.031Z,1.45
2022-08-19T22:32:26.549Z,1.20
2022-08-19T22:34:56.749Z,1.45
2022-08-19T22:37:23.912Z,1.40
2022-08-19T22:39:51.002Z,1.73
2022-08-19T22:42:22.405Z,1.30
2022-08-19T22:44:49.593Z,1.25
2022-08-19T22:47:17.329Z,1.85
2022-08-19T22:49:45.030Z,1.30
2022-08-19T22:52:17.640Z,1.70
2022-08-19T22:57:19.572Z,1.60
2022-08-19T22:59:51.474Z,1.63
2022-08-19T23:02:24.957Z,1.50
2022-08-19T23:04:52.341Z,1.45
2022-08-19T23:07:23.539Z,1.67
2022-08-19T23:09:51.355Z,1.77
2022-08-19T23:12:30.956Z,1.50
2022-08-19T23:15:09.485Z,1.65
2022-08-19T23:17:37.065Z,1.77
2022-08-19T23:20:05.710Z,1.48
2022-08-19T23:22:33.014Z,1.52
2022-08-19T23:25:08.173Z,1.42
2022-08-19T23:27:53.634Z,1.85
2022-08-19T23:30:27.297Z,1.65
2022-08-19T23:33:12.710Z,1.67
2022-08-19T23:35:41.809Z,1.33
2022-08-19T23:38:10.225Z,1.58
2022-08-19T23:40:38.862Z,1.55
2022-08-19T23:43:08.223Z,1.88
2022-08-19T23:45:51.226Z,1.58
2022-08-19T23:48:18.692Z,1.60
2022-08-19T23:50:45.711Z,1.58
2022-08-19T23:53:13.603Z,1.60
2022-08-19T23:55:43.894Z,1.67
2022-08-19T23:58:13.809Z,1.38
